sensor_id;sensor_type;location;lat;lon;timestamp;pressure;altitude;pressure_sealevel;temperature;humidity
30152;BME280;16963;26.018;-80.216;2022-08-05T00:02:03;101721.06;;;32.20;53.07
30152;BME280;16963;26.018;-80.216;2022-08-05T00:04:38;101725.06;;;32.16;52.56
30152;BME280;16963;26.018;-80.216;2022-08-05T00:07:07;101725.34;;;32.13;52.84
30152;BME280;16963;26.018;-80.216;2022-08-05T00:09:55;101724.75;;;32.10;52.93
30152;BME280;16963;26.018;-80.216;2022-08-05T00:12:24;101729.56;;;32.06;53.53
30152;BME280;16963;26.018;-80.216;2022-08-05T00:14:58;101727.59;;;32.08;53.43
30152;BME280;16963;26.018;-80.216;2022-08-05T00:17:47;101721.72;;;32.03;54.03
30152;BME280;16963;26.018;-80.216;2022-08-05T00:22:28;101730.47;;;31.86;53.73
30152;BME280;16963;26.018;-80.216;2022-08-05T00:24:57;101739.16;;;31.79;54.07
30152;BME280;16963;26.018;-80.216;2022-08-05T00:27:28;101738.03;;;31.82;54.10
30152;BME280;16963;26.018;-80.216;2022-08-05T00:30:04;101733.31;;;31.84;54.12
30152;BME280;16963;26.018;-80.216;2022-08-05T00:32:38;101731.44;;;31.85;54.02
30152;BME280;16963;26.018;-80.216;2022-08-05T00:35:08;101735.44;;;31.80;54.04
30152;BME280;16963;26.018;-80.216;2022-08-05T00:37:35;101742.13;;;31.76;54.46
30152;BME280;16963;26.018;-80.216;2022-08-05T00:40:28;101735.25;;;31.72;54.97
30152;BME280;16963;26.018;-80.216;2022-08-05T00:43:00;101741.69;;;31.71;55.25
30152;BME280;16963;26.018;-80.216;2022-08-05T00:45:28;101738.47;;;31.66;55.10
30152;BME280;16963;26.018;-80.216;2022-08-05T00:48:15;101744.19;;;31.63;55.21
30152;BME280;16963;26.018;-80.216;2022-08-05T00:50:53;101748.16;;;31.59;55.85
30152;BME280;16963;26.018;-80.216;2022-08-05T00:53:23;101748.78;;;31.63;55.40
30152;BME280;16963;26.018;-80.216;2022-08-05T00:56:11;101757.47;;;31.66;55.96
30152;BME280;16963;26.018;-80.216;2022-08-05T00:58:44;101763.78;;;31.67;55.77
30152;BME280;16963;26.018;-80.216;2022-08-05T01:01:26;101760.59;;;31.62;55.65
30152;BME280;16963;26.018;-80.216;2022-08-05T01:04:14;101766.16;;;31.60;56.45
30152;BME280;16963;26.018;-80.216;2022-08-05T01:06:53;101778.41;;;31.54;56.67
30152;BME280;16963;26.018;-80.216;2022-08-05T01:09:21;101778.41;;;31.54;56.69
30152;BME280;16963;26.018;-80.216;2022-08-05T01:11:51;101787.13;;;31.58;57.03
30152;BME280;16963;26.018;-80.216;2022-08-05T01:14:40;101794.16;;;31.60;56.72
30152;BME280;16963;26.018;-80.216;2022-08-05T01:17:34;101796.41;;;31.55;57.31
30152;BME280;16963;26.018;-80.216;2022-08-05T01:20:15;101799.25;;;31.54;57.62
30152;BME280;16963;26.018;-80.216;2022-08-05T01:25:46;101803.69;;;31.55;57.99
30152;BME280;16963;26.018;-80.216;2022-08-05T01:28:32;101806.13;;;31.58;57.74
30152;BME280;16963;26.018;-80.216;2022-08-05T01:31:26;101812.56;;;31.57;58.04
30152;BME280;16963;26.018;-80.216;2022-08-05T01:34:03;101809.22;;;31.53;58.04
30152;BME280;16963;26.018;-80.216;2022-08-05T01:36:40;101818.03;;;31.46;58.17
30152;BME280;16963;26.018;-80.216;2022-08-05T01:39:18;101813.72;;;31.43;59.08
30152;BME280;16963;26.018;-80.216;2022-08-05T01:42:11;101818.03;;;31.46;58.75
30152;BME280;16963;26.018;-80.216;2022-08-05T01:44:51;101826.19;;;31.46;58.29
30152;BME280;16963;26.018;-80.216;2022-08-05T01:47:28;101830.88;;;31.44;58.18
30152;BME280;16963;26.018;-80.216;2022-08-05T01:50:11;101832.22;;;31.38;57.74
30152;BME280;16963;26.018;-80.216;2022-08-05T01:52:56;101822.22;;;31.38;58.27
30152;BME280;16963;26.018;-80.216;2022-08-05T01:55:28;101826.91;;;31.36;58.35
30152;BME280;16963;26.018;-80.216;2022-08-05T01:58:00;101832.47;;;31.35;58.61
30152;BME280;16963;26.018;-80.216;2022-08-05T02:00:51;101836.81;;;31.26;59.02
30152;BME280;16963;26.018;-80.216;2022-08-05T02:06:17;101829.16;;;31.31;58.85
30152;BME280;16963;26.018;-80.216;2022-08-05T02:09:05;101839.50;;;31.37;58.74
30152;BME280;16963;26.018;-80.216;2022-08-05T02:12:04;101842.22;;;31.37;58.49
30152;BME280;16963;26.018;-80.216;2022-08-05T02:14:32;101844.66;;;31.40;59.10
30152;BME280;16963;26.018;-80.216;2022-08-05T02:17:11;101845.19;;;31.46;58.53
30152;BME280;16963;26.018;-80.216;2022-08-05T02:20:19;101851.81;;;31.42;58.53
30152;BME280;16963;26.018;-80.216;2022-08-05T02:23:00;101854.03;;;31.36;59.15
30152;BME280;16963;26.018;-80.216;2022-08-05T02:25:39;101857.03;;;31.33;59.26
30152;BME280;16963;26.018;-80.216;2022-08-05T02:30:42;101854.31;;;31.33;59.13
30152;BME280;16963;26.018;-80.216;2022-08-05T02:33:22;101857.88;;;31.34;58.42
30152;BME280;16963;26.018;-80.216;2022-08-05T02:36:11;101854.78;;;31.38;59.11
30152;BME280;16963;26.018;-80.216;2022-08-05T02:38:46;101866.41;;;31.29;58.79
30152;BME280;16963;26.018;-80.216;2022-08-05T02:41:21;101864.19;;;31.23;59.37
30152;BME280;16963;26.018;-80.216;2022-08-05T02:44:07;101858.66;;;31.25;58.88
30152;BME280;16963;26.018;-80.216;2022-08-05T02:46:42;101863.47;;;31.21;58.92
30152;BME280;16963;26.018;-80.216;2022-08-05T02:49:31;101871.47;;;31.23;59.64
30152;BME280;16963;26.018;-80.216;2022-08-05T02:52:14;101868.09;;;31.30;59.04
30152;BME280;16963;26.018;-80.216;2022-08-05T02:55:02;101876.75;;;31.35;58.92
30152;BME280;16963;26.018;-80.216;2022-08-05T02:57:37;101882.28;;;31.34;57.58
30152;BME280;16963;26.018;-80.216;2022-08-05T03:00:27;101870.69;;;31.32;58.02
30152;BME280;16963;26.018;-80.216;2022-08-05T03:02:57;101865.41;;;31.30;59.47
30152;BME280;16963;26.018;-80.216;2022-08-05T03:05:27;101859.72;;;31.33;59.41
30152;BME280;16963;26.018;-80.216;2022-08-05T03:08:15;101876.75;;;31.35;59.81
30152;BME280;16963;26.018;-80.216;2022-08-05T03:10:55;101872.69;;;31.30;60.25
30152;BME280;16963;26.018;-80.216;2022-08-05T03:14:38;101867.41;;;31.17;60.52
30152;BME280;16963;26.018;-80.216;2022-08-05T03:17:14;101871.25;;;31.14;61.06
30152;BME280;16963;26.018;-80.216;2022-08-05T03:19:41;101871.38;;;31.13;61.65
30152;BME280;16963;26.018;-80.216;2022-08-05T03:22:13;101873.63;;;31.08;61.79
30152;BME280;16963;26.018;-80.216;2022-08-05T03:24:47;101877.56;;;31.04;61.75
30152;BME280;16963;26.018;-80.216;2022-08-05T03:27:19;101878.06;;;30.97;62.45
30152;BME280;16963;26.018;-80.216;2022-08-05T03:29:48;101876.59;;;30.93;62.70
30152;BME280;16963;26.018;-80.216;2022-08-05T03:32:35;101877.72;;;30.91;62.69
30152;BME280;16963;26.018;-80.216;2022-08-05T03:35:05;101879.41;;;30.92;62.43
30152;BME280;16963;26.018;-80.216;2022-08-05T03:37:40;101882.13;;;30.92;62.78
30152;BME280;16963;26.018;-80.216;2022-08-05T03:40:13;101885.47;;;30.95;62.82
30152;BME280;16963;26.018;-80.216;2022-08-05T03:42:58;101883.00;;;31.04;62.62
30152;BME280;16963;26.018;-80.216;2022-08-05T03:45:48;101867.19;;;31.09;62.68
30152;BME280;16963;26.018;-80.216;2022-08-05T03:48:28;101877.06;;;31.10;62.89
30152;BME280;16963;26.018;-80.216;2022-08-05T03:51:16;101878.50;;;31.14;62.04
30152;BME280;16963;26.018;-80.216;2022-08-05T03:54:28;101871.38;;;31.13;61.51
30152;BME280;16963;26.018;-80.216;2022-08-05T03:57:24;101877.91;;;31.10;61.64
30152;BME280;16963;26.018;-80.216;2022-08-05T04:02:41;101863.78;;;30.95;61.93
30152;BME280;16963;26.018;-80.216;2022-08-05T04:05:27;101869.19;;;30.95;61.99
30152;BME280;16963;26.018;-80.216;2022-08-05T04:08:08;101861.81;;;30.97;62.36
30152;BME280;16963;26.018;-80.216;2022-08-05T04:10:58;101865.88;;;30.92;62.06
30152;BME280;16963;26.018;-80.216;2022-08-05T04:13:25;101867.94;;;30.88;62.23
30152;BME280;16963;26.018;-80.216;2022-08-05T04:16:15;101860.81;;;30.87;61.79
30152;BME280;16963;26.018;-80.216;2022-08-05T04:18:58;101854.56;;;30.87;62.27
30152;BME280;16963;26.018;-80.216;2022-08-05T04:21:28;101846.28;;;30.88;62.29
30152;BME280;16963;26.018;-80.216;2022-08-05T04:23:56;101844.75;;;30.84;62.22
30152;BME280;16963;26.018;-80.216;2022-08-05T04:26:35;101850.19;;;30.84;62.46
30152;BME280;16963;26.018;-80.216;2022-08-05T04:29:05;101844.03;;;30.82;62.73
30152;BME280;16963;26.018;-80.216;2022-08-05T04:31:35;101854.41;;;30.77;63.07
30152;BME280;16963;26.018;-80.216;2022-08-05T04:34:05;101858.22;;;30.74;61.39
30152;BME280;16963;26.018;-80.216;2022-08-05T04:36:54;101854.41;;;30.77;62.15
30152;BME280;16963;26.018;-80.216;2022-08-05T04:39:24;101867.34;;;30.85;62.20
30152;BME280;16963;26.018;-80.216;2022-08-05T04:41:54;101858.84;;;30.89;62.45
30152;BME280;16963;26.018;-80.216;2022-08-05T04:44:21;101856.03;;;30.91;62.51
30152;BME280;16963;26.018;-80.216;2022-08-05T04:46:48;101864.75;;;30.94;62.82
30152;BME280;16963;26.018;-80.216;2022-08-05T04:49:28;101863.78;;;30.95;62.78
30152;BME280;16963;26.018;-80.216;2022-08-05T04:52:16;101863.50;;;30.98;62.94
30152;BME280;16963;26.018;-80.216;2022-08-05T04:54:45;101867.22;;;30.97;62.25
30152;BME280;16963;26.018;-80.216;2022-08-05T04:57:15;101856.38;;;30.97;62.65
30152;BME280;16963;26.018;-80.216;2022-08-05T04:59:48;101846.38;;;30.98;62.15
30152;BME280;16963;26.018;-80.216;2022-08-05T05:02:15;101853.50;;;30.99;62.09
30152;BME280;16963;26.018;-80.216;2022-08-05T05:05:05;101847.50;;;30.95;61.50
30152;BME280;16963;26.018;-80.216;2022-08-05T05:07:56;101848.22;;;30.86;61.95
30152;BME280;16963;26.018;-80.216;2022-08-05T05:10:25;101848.47;;;30.83;61.83
30152;BME280;16963;26.018;-80.216;2022-08-05T05:13:02;101847.00;;;30.79;60.69
30152;BME280;16963;26.018;-80.216;2022-08-05T05:15:31;101853.53;;;30.76;60.85
30152;BME280;16963;26.018;-80.216;2022-08-05T05:18:19;101858.06;;;30.76;60.48
30152;BME280;16963;26.018;-80.216;2022-08-05T05:21:01;101854.66;;;30.74;60.45
30152;BME280;16963;26.018;-80.216;2022-08-05T05:23:29;101852.91;;;30.73;60.90
30152;BME280;16963;26.018;-80.216;2022-08-05T05:26:20;101854.41;;;30.77;60.74
30152;BME280;16963;26.018;-80.216;2022-08-05T05:28:59;101848.97;;;30.77;60.96
30152;BME280;16963;26.018;-80.216;2022-08-05T05:31:28;101847.22;;;30.76;61.01
30152;BME280;16963;26.018;-80.216;2022-08-05T05:33:55;101839.84;;;30.78;60.91
30152;BME280;16963;26.018;-80.216;2022-08-05T05:38:56;101838.13;;;30.77;60.77
30152;BME280;16963;26.018;-80.216;2022-08-05T05:41:25;101845.25;;;30.78;60.48
30152;BME280;16963;26.018;-80.216;2022-08-05T05:44:09;101839.84;;;30.78;60.70
30152;BME280;16963;26.018;-80.216;2022-08-05T05:46:58;101832.84;;;30.75;61.10
30152;BME280;16963;26.018;-80.216;2022-08-05T05:49:30;101831.88;;;30.76;60.86
30152;BME280;16963;26.018;-80.216;2022-08-05T05:51:59;101825.44;;;30.77;61.74
30152;BME280;16963;26.018;-80.216;2022-08-05T05:54:33;101821.63;;;30.80;61.27
30152;BME280;16963;26.018;-80.216;2022-08-05T05:57:18;101825.31;;;30.79;61.69
30152;BME280;16963;26.018;-80.216;2022-08-05T06:01:08;101833.69;;;30.76;61.71
30152;BME280;16963;26.018;-80.216;2022-08-05T06:03:41;101829.00;;;30.78;61.35
30152;BME280;16963;26.018;-80.216;2022-08-05T06:06:29;101829.00;;;30.78;61.31
30152;BME280;16963;26.018;-80.216;2022-08-05T06:09:02;101829.00;;;30.78;61.57
30152;BME280;16963;26.018;-80.216;2022-08-05T06:11:33;101830.97;;;30.76;60.99
30152;BME280;16963;26.018;-80.216;2022-08-05T06:14:05;101827.78;;;30.71;60.49
30152;BME280;16963;26.018;-80.216;2022-08-05T06:16:34;101823.38;;;30.70;60.48
30152;BME280;16963;26.018;-80.216;2022-08-05T06:19:05;101824.13;;;30.72;59.76
30152;BME280;16963;26.018;-80.216;2022-08-05T06:21:42;101822.16;;;30.74;60.14
30152;BME280;16963;26.018;-80.216;2022-08-05T06:24:16;101823.84;;;30.75;59.33
30152;BME280;16963;26.018;-80.216;2022-08-05T06:26:54;101826.69;;;30.73;59.24
30152;BME280;16963;26.018;-80.216;2022-08-05T06:29:22;101834.69;;;30.75;58.84
30152;BME280;16963;26.018;-80.216;2022-08-05T06:32:10;101831.97;;;30.75;58.72
30152;BME280;16963;26.018;-80.216;2022-08-05T06:34:55;101837.50;;;30.73;59.04
30152;BME280;16963;26.018;-80.216;2022-08-05T06:37:33;101832.97;;;30.74;59.16
30152;BME280;16963;26.018;-80.216;2022-08-05T06:40:21;101831.25;;;30.73;59.24
30152;BME280;16963;26.018;-80.216;2022-08-05T06:44:08;101836.94;;;30.70;58.88
30152;BME280;16963;26.018;-80.216;2022-08-05T06:46:36;101835.06;;;30.70;59.18
30152;BME280;16963;26.018;-80.216;2022-08-05T06:49:08;101826.09;;;30.70;59.81
30152;BME280;16963;26.018;-80.216;2022-08-05T06:51:39;101831.34;;;30.71;60.05
30152;BME280;16963;26.018;-80.216;2022-08-05T06:54:08;101821.41;;;30.72;59.95
30152;BME280;16963;26.018;-80.216;2022-08-05T06:56:44;101822.41;;;30.59;59.42
30152;BME280;16963;26.018;-80.216;2022-08-05T06:59:21;101830.03;;;30.43;58.69
30152;BME280;16963;26.018;-80.216;2022-08-05T07:01:50;101827.56;;;30.29;59.04
30152;BME280;16963;26.018;-80.216;2022-08-05T07:04:28;101823.59;;;30.22;59.60
30152;BME280;16963;26.018;-80.216;2022-08-05T07:06:56;101827.38;;;30.19;59.57
30152;BME280;16963;26.018;-80.216;2022-08-05T07:09:25;101824.31;;;30.12;59.82
30152;BME280;16963;26.018;-80.216;2022-08-05T07:12:04;101828.97;;;30.10;59.94
30152;BME280;16963;26.018;-80.216;2022-08-05T07:14:34;101818.16;;;30.10;60.57
30152;BME280;16963;26.018;-80.216;2022-08-05T07:17:20;101819.25;;;30.08;61.13
30152;BME280;16963;26.018;-80.216;2022-08-05T07:20:08;101821.84;;;30.09;61.53
30152;BME280;16963;26.018;-80.216;2022-08-05T07:25:12;101821.84;;;30.09;61.57
30152;BME280;16963;26.018;-80.216;2022-08-05T07:28:00;101814.72;;;30.08;61.95
30152;BME280;16963;26.018;-80.216;2022-08-05T07:30:39;101807.31;;;30.10;61.90
30152;BME280;16963;26.018;-80.216;2022-08-05T07:33:10;101804.41;;;30.13;61.71
30152;BME280;16963;26.018;-80.216;2022-08-05T07:35:44;101792.34;;;30.17;61.56
30152;BME280;16963;26.018;-80.216;2022-08-05T07:38:33;101784.06;;;30.19;61.18
30152;BME280;16963;26.018;-80.216;2022-08-05T07:41:19;101776.56;;;30.23;61.43
30152;BME280;16963;26.018;-80.216;2022-08-05T07:44:08;101779.28;;;30.23;61.40
30152;BME280;16963;26.018;-80.216;2022-08-05T07:47:59;101775.59;;;30.24;61.23
30152;BME280;16963;26.018;-80.216;2022-08-05T07:50:28;101781.88;;;30.24;61.45
30152;BME280;16963;26.018;-80.216;2022-08-05T07:52:59;101784.47;;;30.26;61.16
30152;BME280;16963;26.018;-80.216;2022-08-05T07:55:28;101779.06;;;30.26;61.01
30152;BME280;16963;26.018;-80.216;2022-08-05T07:58:17;101773.88;;;30.23;60.28
30152;BME280;16963;26.018;-80.216;2022-08-05T08:01:06;101774.34;;;30.16;60.67
30152;BME280;16963;26.018;-80.216;2022-08-05T08:03:39;101777.81;;;30.18;59.86
30152;BME280;16963;26.018;-80.216;2022-08-05T08:06:11;101782.25;;;30.19;60.20
30152;BME280;16963;26.018;-80.216;2022-08-05T08:08:55;101777.81;;;30.18;59.58
30152;BME280;16963;26.018;-80.216;2022-08-05T08:11:24;101774.13;;;30.19;59.80
30152;BME280;16963;26.018;-80.216;2022-08-05T08:14:11;101768.72;;;30.19;59.76
30152;BME280;16963;26.018;-80.216;2022-08-05T08:16:45;101768.72;;;30.19;59.58
30152;BME280;16963;26.018;-80.216;2022-08-05T08:19:19;101765.25;;;30.17;59.58
30152;BME280;16963;26.018;-80.216;2022-08-05T08:22:11;101762.56;;;30.17;59.84
30152;BME280;16963;26.018;-80.216;2022-08-05T08:24:44;101754.66;;;30.14;59.30
30152;BME280;16963;26.018;-80.216;2022-08-05T08:27:19;101755.66;;;30.13;59.82
30152;BME280;16963;26.018;-80.216;2022-08-05T08:32:19;101767.47;;;30.12;59.96
30152;BME280;16963;26.018;-80.216;2022-08-05T08:34:54;101757.75;;;30.10;61.20
30152;BME280;16963;26.018;-80.216;2022-08-05T08:37:25;101750.38;;;30.01;62.04
30152;BME280;16963;26.018;-80.216;2022-08-05T08:39:54;101757.97;;;29.95;62.52
30152;BME280;16963;26.018;-80.216;2022-08-05T08:42:21;101756.63;;;29.90;62.77
30152;BME280;16963;26.018;-80.216;2022-08-05T08:45:06;101761.41;;;29.86;63.32
30152;BME280;16963;26.018;-80.216;2022-08-05T08:47:50;101764.72;;;29.78;63.37
30152;BME280;16963;26.018;-80.216;2022-08-05T08:51:22;101772.34;;;29.73;63.87
30152;BME280;16963;26.018;-80.216;2022-08-05T08:54:09;101771.59;;;29.71;64.09
30152;BME280;16963;26.018;-80.216;2022-08-05T08:56:40;101767.16;;;29.70;64.52
30152;BME280;16963;26.018;-80.216;2022-08-05T08:59:19;101758.28;;;29.68;65.47
30152;BME280;16963;26.018;-80.216;2022-08-05T09:01:49;101750.41;;;29.65;65.10
30152;BME280;16963;26.018;-80.216;2022-08-05T09:04:25;101747.97;;;29.62;65.45
30152;BME280;16963;26.018;-80.216;2022-08-05T09:06:57;101745.59;;;29.57;65.79
30152;BME280;16963;26.018;-80.216;2022-08-05T09:09:26;101736.88;;;29.54;66.42
30152;BME280;16963;26.018;-80.216;2022-08-05T09:13:14;101742.38;;;29.52;66.11
30152;BME280;16963;26.018;-80.216;2022-08-05T09:15:52;101753.31;;;29.51;66.57
30152;BME280;16963;26.018;-80.216;2022-08-05T09:18:21;101758.63;;;29.52;67.23
30152;BME280;16963;26.018;-80.216;2022-08-05T09:20:49;101766.09;;;29.49;67.53
30152;BME280;16963;26.018;-80.216;2022-08-05T09:23:19;101758.91;;;29.36;67.43
30152;BME280;16963;26.018;-80.216;2022-08-05T09:26:05;101761.78;;;29.35;68.67
30152;BME280;16963;26.018;-80.216;2022-08-05T09:28:37;101771.94;;;29.31;67.86
30152;BME280;16963;26.018;-80.216;2022-08-05T09:31:12;101788.16;;;29.31;67.92
30152;BME280;16963;26.018;-80.216;2022-08-05T09:34:09;101790.63;;;29.34;68.20
30152;BME280;16963;26.018;-80.216;2022-08-05T09:36:56;101789.03;;;29.32;68.02
30152;BME280;16963;26.018;-80.216;2022-08-05T09:39:26;101780.81;;;29.33;68.20
30152;BME280;16963;26.018;-80.216;2022-08-05T09:42:20;101789.66;;;29.35;68.00
30152;BME280;16963;26.018;-80.216;2022-08-05T09:44:54;101798.22;;;29.29;66.03
30152;BME280;16963;26.018;-80.216;2022-08-05T09:47:42;101805.50;;;29.29;67.49
30152;BME280;16963;26.018;-80.216;2022-08-05T09:50:36;101798.97;;;29.31;67.79
30152;BME280;16963;26.018;-80.216;2022-08-05T09:53:11;101803.66;;;29.29;68.37
30152;BME280;16963;26.018;-80.216;2022-08-05T09:55:57;101804.38;;;29.31;68.45
30152;BME280;16963;26.018;-80.216;2022-08-05T09:58:27;101792.72;;;29.31;69.10
30152;BME280;16963;26.018;-80.216;2022-08-05T10:03:28;101796.50;;;29.28;70.43
30152;BME280;16963;26.018;-80.216;2022-08-05T10:06:19;101796.75;;;29.25;70.44
30152;BME280;16963;26.018;-80.216;2022-08-05T10:08:48;101796.00;;;29.23;70.86
30152;BME280;16963;26.018;-80.216;2022-08-05T10:11:20;101794.28;;;29.22;71.36
30152;BME280;16963;26.018;-80.216;2022-08-05T10:13:49;101800.66;;;29.21;71.48
30152;BME280;16963;26.018;-80.216;2022-08-05T10:16:35;101799.69;;;29.22;71.64
30152;BME280;16963;26.018;-80.216;2022-08-05T10:19:09;101803.34;;;29.21;71.54
30152;BME280;16963;26.018;-80.216;2022-08-05T10:21:39;101795.59;;;29.16;71.28
30152;BME280;16963;26.018;-80.216;2022-08-05T10:24:21;101794.41;;;29.08;70.91
30152;BME280;16963;26.018;-80.216;2022-08-05T10:29:49;101790.88;;;28.94;70.16
30152;BME280;16963;26.018;-80.216;2022-08-05T10:32:36;101796.44;;;28.93;70.74
30152;BME280;16963;26.018;-80.216;2022-08-05T10:35:26;101804.94;;;28.99;70.42
30152;BME280;16963;26.018;-80.216;2022-08-05T10:38:10;101795.63;;;29.04;70.90
30152;BME280;16963;26.018;-80.216;2022-08-05T10:40:45;101801.59;;;28.96;71.97
30152;BME280;16963;26.018;-80.216;2022-08-05T10:46:16;101802.84;;;28.79;73.31
30152;BME280;16963;26.018;-80.216;2022-08-05T10:48:56;101809.53;;;28.73;73.70
30152;BME280;16963;26.018;-80.216;2022-08-05T10:54:01;101833.00;;;28.73;73.97
30152;BME280;16963;26.018;-80.216;2022-08-05T10:56:53;101830.53;;;28.70;73.49
30152;BME280;16963;26.018;-80.216;2022-08-05T10:59:30;101830.53;;;28.70;73.62
30152;BME280;16963;26.018;-80.216;2022-08-05T11:02:20;101832.25;;;28.71;73.75
30152;BME280;16963;26.018;-80.216;2022-08-05T11:05:08;101840.91;;;28.76;73.31
30152;BME280;16963;26.018;-80.216;2022-08-05T11:07:55;101838.25;;;28.87;73.38
30152;BME280;16963;26.018;-80.216;2022-08-05T11:10:36;101838.25;;;28.87;73.12
30152;BME280;16963;26.018;-80.216;2022-08-05T11:13:41;101843.22;;;28.93;72.86
30152;BME280;16963;26.018;-80.216;2022-08-05T11:19:30;101839.31;;;28.97;72.11
30152;BME280;16963;26.018;-80.216;2022-08-05T11:22:45;101835.16;;;29.05;72.14
30152;BME280;16963;26.018;-80.216;2022-08-05T11:25:34;101840.38;;;29.08;72.11
30152;BME280;16963;26.018;-80.216;2022-08-05T11:33:32;101837.03;;;29.28;71.36
30152;BME280;16963;26.018;-80.216;2022-08-05T11:36:17;101845.44;;;29.36;71.19
30152;BME280;16963;26.018;-80.216;2022-08-05T11:41:03;101846.28;;;29.50;70.52
30152;BME280;16963;26.018;-80.216;2022-08-05T11:44:01;101838.94;;;29.63;70.10
30152;BME280;16963;26.018;-80.216;2022-08-05T11:46:35;101843.44;;;29.75;69.80
30152;BME280;16963;26.018;-80.216;2022-08-05T11:49:25;101848.75;;;29.88;70.28
30152;BME280;16963;26.018;-80.216;2022-08-05T11:51:54;101847.66;;;30.02;69.14
30152;BME280;16963;26.018;-80.216;2022-08-05T11:54:30;101854.59;;;30.17;68.42
30152;BME280;16963;26.018;-80.216;2022-08-05T11:57:09;101861.66;;;30.31;66.92
30152;BME280;16963;26.018;-80.216;2022-08-05T11:59:52;101870.16;;;30.38;66.46
30152;BME280;16963;26.018;-80.216;2022-08-05T12:02:37;101870.56;;;30.45;65.90
30152;BME280;16963;26.018;-80.216;2022-08-05T12:07:42;101861.66;;;30.54;65.51
30152;BME280;16963;26.018;-80.216;2022-08-05T12:10:31;101856.88;;;30.69;65.35
30152;BME280;16963;26.018;-80.216;2022-08-05T12:13:13;101863.03;;;30.71;64.57
30152;BME280;16963;26.018;-80.216;2022-08-05T12:15:54;101891.13;;;30.70;64.26
30152;BME280;16963;26.018;-80.216;2022-08-05T12:18:33;101894.44;;;30.62;65.03
30152;BME280;16963;26.018;-80.216;2022-08-05T12:21:13;101883.34;;;30.54;65.15
30152;BME280;16963;26.018;-80.216;2022-08-05T12:26:40;101880.41;;;30.68;65.36
30152;BME280;16963;26.018;-80.216;2022-08-05T12:29:13;101876.31;;;30.63;64.64
30152;BME280;16963;26.018;-80.216;2022-08-05T12:31:55;101879.41;;;30.47;65.30
30152;BME280;16963;26.018;-80.216;2022-08-05T12:34:28;101888.41;;;30.36;65.64
30152;BME280;16963;26.018;-80.216;2022-08-05T12:37:01;101886.91;;;30.32;66.33
30152;BME280;16963;26.018;-80.216;2022-08-05T12:39:42;101892.56;;;30.29;66.34
30152;BME280;16963;26.018;-80.216;2022-08-05T12:42:19;101887.34;;;30.26;66.93
30152;BME280;16963;26.018;-80.216;2022-08-05T12:44:51;101878.81;;;30.19;66.83
30152;BME280;16963;26.018;-80.216;2022-08-05T12:47:27;101882.91;;;30.25;66.81
30152;BME280;16963;26.018;-80.216;2022-08-05T12:50:19;101887.31;;;30.14;66.58
30152;BME280;16963;26.018;-80.216;2022-08-05T12:52:56;101889.66;;;30.08;67.27
30152;BME280;16963;26.018;-80.216;2022-08-05T12:55:29;101893.94;;;29.99;66.27
30152;BME280;16963;26.018;-80.216;2022-08-05T12:58:00;101892.44;;;29.95;66.96
30152;BME280;16963;26.018;-80.216;2022-08-05T13:00:48;101909.25;;;29.87;67.00
30152;BME280;16963;26.018;-80.216;2022-08-05T13:03:37;101905.19;;;29.82;68.03
30152;BME280;16963;26.018;-80.216;2022-08-05T13:06:15;101897.84;;;29.95;68.40
30152;BME280;16963;26.018;-80.216;2022-08-05T13:08:56;101890.81;;;30.28;67.93
30152;BME280;16963;26.018;-80.216;2022-08-05T13:11:29;101888.75;;;30.65;67.31
30152;BME280;16963;26.018;-80.216;2022-08-05T13:14:23;101871.88;;;31.07;65.25
30152;BME280;16963;26.018;-80.216;2022-08-05T13:22:36;101866.34;;;31.73;63.10
30152;BME280;16963;26.018;-80.216;2022-08-05T13:25:09;101874.38;;;31.95;61.44
30152;BME280;16963;26.018;-80.216;2022-08-05T13:30:16;101863.84;;;32.13;60.53
30152;BME280;16963;26.018;-80.216;2022-08-05T13:33:02;101878.19;;;32.25;59.69
30152;BME280;16963;26.018;-80.216;2022-08-05T13:35:30;101875.03;;;32.20;59.78
30152;BME280;16963;26.018;-80.216;2022-08-05T13:38:20;101880.38;;;32.31;61.17
30152;BME280;16963;26.018;-80.216;2022-08-05T13:41:00;101880.22;;;32.54;60.47
30152;BME280;16963;26.018;-80.216;2022-08-05T13:43:29;101878.84;;;32.69;60.00
30152;BME280;16963;26.018;-80.216;2022-08-05T13:46:16;101878.06;;;32.88;57.99
30152;BME280;16963;26.018;-80.216;2022-08-05T13:49:06;101878.34;;;32.85;57.61
30152;BME280;16963;26.018;-80.216;2022-08-05T13:51:43;101884.91;;;32.83;57.31
30152;BME280;16963;26.018;-80.216;2022-08-05T13:54:15;101877.34;;;32.86;57.71
30152;BME280;16963;26.018;-80.216;2022-08-05T13:56:47;101891.41;;;33.01;57.80
30152;BME280;16963;26.018;-80.216;2022-08-05T13:59:21;101890.75;;;33.09;57.15
30152;BME280;16963;26.018;-80.216;2022-08-05T14:01:55;101888.19;;;33.17;58.48
30152;BME280;16963;26.018;-80.216;2022-08-05T14:04:31;101887.66;;;33.42;57.06
30152;BME280;16963;26.018;-80.216;2022-08-05T14:07:26;101893.69;;;33.46;56.58
30152;BME280;16963;26.018;-80.216;2022-08-05T14:10:18;101897.97;;;33.49;55.80
30152;BME280;16963;26.018;-80.216;2022-08-05T14:14:24;101917.00;;;33.49;56.25
30152;BME280;16963;26.018;-80.216;2022-08-05T14:17:00;101902.56;;;33.48;56.26
30152;BME280;16963;26.018;-80.216;2022-08-05T14:19:29;101917.00;;;33.49;56.55
30152;BME280;16963;26.018;-80.216;2022-08-05T14:22:16;101905.56;;;33.55;55.72
30152;BME280;16963;26.018;-80.216;2022-08-05T14:24:45;101915.75;;;33.72;55.92
30152;BME280;16963;26.018;-80.216;2022-08-05T14:27:16;101916.06;;;33.89;55.47
30152;BME280;16963;26.018;-80.216;2022-08-05T14:29:45;101933.50;;;33.96;55.56
30152;BME280;16963;26.018;-80.216;2022-08-05T14:32:28;101933.66;;;34.04;55.99